createdAt,value
2023-04-02T00:01:37.052Z,7.40
2023-04-02T00:07:30.780Z,7.20
2023-04-02T00:13:10.646Z,7.30
2023-04-02T00:18:34.457Z,7.00
2023-04-02T00:23:57.045Z,7.00
2023-04-02T00:29:19.723Z,7.00
2023-04-02T00:34:41.758Z,6.90
2023-04-02T00:40:08.218Z,6.70
2023-04-02T00:45:33.408Z,6.70
2023-04-02T00:50:56.790Z,6.40
2023-04-02T00:56:27.551Z,6.40
2023-04-02T01:02:13.803Z,6.30
2023-04-02T01:07:47.432Z,6.30
2023-04-02T01:13:33.369Z,6.10
2023-04-02T01:19:06.428Z,5.90
2023-04-02T01:24:33.759Z,6.00
2023-04-02T01:30:00.715Z,5.80
2023-04-02T01:35:23.784Z,6.00
2023-04-02T01:40:48.114Z,6.00
2023-04-02T01:46:48.016Z,5.80
2023-04-02T01:52:13.795Z,5.90
2023-04-02T01:57:38.631Z,5.80
2023-04-02T02:03:01.976Z,5.60
2023-04-02T02:08:32.515Z,5.60
2023-04-02T02:14:22.229Z,5.60
2023-04-02T02:19:48.291Z,5.30
2023-04-02T02:25:21.024Z,5.00
2023-04-02T02:30:57.757Z,4.90
2023-04-02T02:36:25.145Z,5.00
2023-04-02T02:41:52.621Z,4.90
2023-04-02T02:47:29.509Z,5.00
2023-04-02T02:52:55.881Z,4.70
2023-04-02T02:58:32.119Z,4.70
2023-04-02T03:04:24.815Z,4.40
2023-04-02T03:10:12.694Z,4.50
2023-04-02T03:15:53.680Z,4.30
2023-04-02T03:21:33.820Z,4.40
2023-04-02T03:27:20.535Z,4.30
2023-04-02T03:32:44.868Z,4.30
2023-04-02T03:38:34.216Z,4.40
2023-04-02T03:43:59.180Z,4.30
2023-04-02T03:49:34.348Z,4.20
2023-04-02T03:54:59.477Z,4.20
2023-04-02T04:00:34.609Z,4.10
2023-04-02T04:06:22.113Z,4.00
2023-04-02T04:11:51.441Z,3.80
2023-04-02T04:17:30.348Z,3.90
2023-04-02T04:22:56.204Z,3.80
2023-04-02T04:28:47.373Z,3.70
2023-04-02T04:34:16.919Z,3.80
2023-04-02T04:39:49.055Z,3.50
2023-04-02T04:45:32.068Z,3.70
2023-04-02T04:51:04.544Z,3.70
2023-04-02T04:56:30.909Z,3.50
2023-04-02T05:02:18.745Z,3.60
2023-04-02T05:07:49.301Z,3.50
2023-04-02T05:13:37.211Z,3.50
2023-04-02T05:19:14.078Z,3.40
2023-04-02T05:24:39.853Z,3.50
2023-04-02T05:30:12.334Z,3.30
2023-04-02T05:35:41.919Z,3.30
2023-04-02T05:41:12.633Z,3.30
2023-04-02T05:46:41.530Z,3.20
2023-04-02T05:52:06.393Z,3.10
2023-04-02T05:58:10.438Z,3.10
2023-04-02T06:04:12.088Z,3.10
2023-04-02T06:09:43.736Z,2.90
2023-04-02T06:15:06.963Z,2.90
2023-04-02T06:20:28.994Z,2.70
2023-04-02T06:26:07.728Z,2.80
2023-04-02T06:31:43.235Z,2.50
2023-04-02T06:37:30.455Z,2.60
2023-04-02T06:43:07.919Z,2.50
2023-04-02T06:48:50.677Z,2.60
2023-04-02T06:54:19.129Z,2.60
2023-04-02T06:59:45.871Z,2.40
2023-04-02T07:05:12.944Z,2.50
2023-04-02T07:10:40.210Z,2.40
2023-04-02T07:16:02.197Z,2.40
2023-04-02T07:21:24.290Z,2.40
2023-04-02T07:26:48.326Z,2.50
2023-04-02T07:32:12.165Z,2.40
2023-04-02T07:37:33.815Z,2.30
2023-04-02T07:42:55.424Z,2.40
2023-04-02T07:48:16.967Z,2.10
2023-04-02T07:53:38.816Z,2.20
2023-04-02T07:59:00.265Z,2.20
2023-04-02T08:04:25.518Z,2.10
2023-04-02T08:09:47.040Z,2.10
2023-04-02T08:15:10.501Z,2.00
2023-04-02T08:20:32.028Z,2.10
2023-04-02T08:25:54.252Z,2.00
2023-04-02T08:31:15.453Z,2.00
2023-04-02T08:36:43.461Z,2.00
2023-04-02T08:42:14.661Z,1.90
2023-04-02T08:47:40.434Z,1.90
2023-04-02T08:53:05.086Z,2.00
2023-04-02T08:58:43.674Z,2.00
2023-04-02T09:04:15.126Z,2.00
2023-04-02T09:09:39.039Z,2.00
2023-04-02T09:15:29.537Z,2.20
2023-04-02T09:20:50.885Z,2.10
2023-04-02T09:26:24.978Z,2.20
2023-04-02T09:31:58.280Z,2.00
2023-04-02T09:37:25.492Z,2.10
2023-04-02T09:42:47.081Z,2.10
2023-04-02T09:48:40.894Z,2.00
2023-04-02T09:54:12.872Z,2.00
2023-04-02T09:59:34.313Z,2.20
2023-04-02T10:04:56.254Z,2.20
2023-04-02T10:10:19.563Z,2.20
2023-04-02T10:15:49.407Z,2.30
2023-04-02T10:21:17.128Z,2.20
2023-04-02T10:26:54.839Z,2.40
2023-04-02T10:32:40.927Z,2.40
2023-04-02T10:38:07.366Z,2.40
2023-04-02T10:44:06.194Z,2.40
2023-04-02T10:50:05.947Z,2.50
2023-04-02T10:55:31.665Z,2.50
2023-04-02T11:00:59.573Z,2.30
2023-04-02T11:06:25.690Z,2.40
2023-04-02T11:11:51.471Z,2.40
2023-04-02T11:17:20.997Z,2.50
2023-04-02T11:22:42.933Z,2.40
2023-04-02T11:28:19.339Z,2.30
2023-04-02T11:33:46.144Z,2.40
2023-04-02T11:39:17.400Z,2.30
2023-04-02T11:44:38.934Z,2.40
2023-04-02T11:50:01.847Z,2.60
2023-04-02T11:55:29.475Z,2.40
2023-04-02T12:01:00.399Z,2.50
2023-04-02T12:06:25.894Z,2.60
2023-04-02T12:11:49.874Z,2.60
2023-04-02T12:17:48.075Z,2.70
2023-04-02T12:23:22.102Z,2.50
2023-04-02T12:28:46.515Z,2.50
2023-04-02T12:34:16.541Z,2.50
2023-04-02T12:39:37.828Z,2.60
2023-04-02T12:44:59.974Z,2.60
2023-04-02T12:50:22.983Z,2.60
2023-04-02T12:55:48.657Z,2.50
2023-04-02T13:01:18.856Z,2.60
2023-04-02T13:06:47.492Z,2.70
2023-04-02T13:12:37.833Z,2.90
2023-04-02T13:18:21.700Z,2.90
2023-04-02T13:23:44.370Z,3.00
2023-04-02T13:29:14.454Z,3.10
2023-04-02T13:34:36.043Z,3.20
2023-04-02T13:39:57.498Z,3.30
2023-04-02T13:45:26.880Z,3.30
2023-04-02T13:50:48.500Z,3.50
2023-04-02T13:56:09.842Z,3.40
2023-04-02T14:01:32.587Z,3.40
2023-04-02T14:07:06.744Z,3.40
2023-04-02T14:12:53.351Z,3.40
2023-04-02T14:18:45.180Z,3.30
2023-04-02T14:24:29.429Z,3.30
2023-04-02T14:30:02.565Z,3.40
2023-04-02T14:35:34.345Z,3.40
2023-04-02T14:41:03.456Z,3.30
2023-04-02T14:46:28.761Z,3.40
2023-04-02T14:51:53.868Z,3.40
2023-04-02T14:57:30.006Z,3.40
2023-04-02T15:03:07.442Z,3.30
2023-04-02T15:08:46.790Z,3.30
2023-04-02T15:14:23.528Z,3.40
2023-04-02T15:19:44.963Z,3.30
2023-04-02T15:25:09.663Z,3.20
2023-04-02T15:30:43.676Z,3.30
2023-04-02T15:36:29.665Z,3.20
2023-04-02T15:42:02.343Z,3.10
2023-04-02T15:47:59.088Z,3.10
2023-04-02T15:53:56.112Z,3.20
2023-04-02T15:59:51.056Z,3.10
2023-04-02T16:06:17.086Z,3.10
2023-04-02T16:11:39.666Z,3.00
2023-04-02T16:17:17.662Z,3.00
2023-04-02T16:23:00.131Z,3.10
2023-04-02T16:28:39.214Z,3.10
2023-04-02T16:34:14.227Z,3.10
2023-04-02T16:39:54.271Z,3.10
2023-04-02T16:45:23.805Z,3.10
2023-04-02T16:50:51.190Z,3.00
2023-04-02T16:56:41.295Z,3.20
2023-04-02T17:02:44.822Z,3.10
2023-04-02T17:08:25.033Z,3.10
2023-04-02T17:14:06.139Z,3.10
2023-04-02T17:19:29.380Z,3.00
2023-04-02T17:25:03.847Z,3.10
2023-04-02T17:30:43.750Z,3.00
2023-04-02T17:36:33.107Z,3.10
2023-04-02T17:42:12.842Z,3.00
2023-04-02T17:47:40.582Z,2.90
2023-04-02T17:53:31.308Z,2.90
2023-04-02T17:59:21.815Z,3.00
2023-04-02T18:04:59.571Z,3.00
2023-04-02T18:10:29.046Z,3.00
2023-04-02T18:16:12.197Z,3.00
2023-04-02T18:21:48.549Z,3.10
2023-04-02T18:27:49.950Z,3.00
2023-04-02T18:33:41.327Z,3.00
2023-04-02T18:39:28.744Z,3.00
2023-04-02T18:45:27.887Z,3.00
2023-04-02T18:50:49.767Z,3.10
2023-04-02T18:56:19.133Z,3.00
2023-04-02T19:01:45.614Z,3.00
2023-04-02T19:07:17.144Z,3.00
2023-04-02T19:12:41.355Z,3.00
2023-04-02T19:18:17.920Z,3.00
2023-04-02T19:23:56.815Z,3.00
2023-04-02T19:29:35.275Z,3.00
2023-04-02T19:35:26.932Z,3.00
2023-04-02T19:40:53.762Z,2.90
2023-04-02T19:46:15.541Z,2.90
2023-04-02T19:51:36.730Z,2.90
2023-04-02T19:56:58.259Z,2.90
2023-04-02T20:02:19.632Z,2.90
2023-04-02T20:07:41.124Z,2.80
2023-04-02T20:13:02.432Z,2.90
2023-04-02T20:18:24.028Z,2.80
2023-04-02T20:23:45.756Z,2.90
2023-04-02T20:29:07.177Z,2.90
2023-04-02T20:34:29.126Z,2.90
2023-04-02T20:39:51.336Z,2.90
2023-04-02T20:45:12.923Z,2.80
2023-04-02T20:50:34.583Z,2.80
2023-04-02T20:56:07.427Z,2.80
2023-04-02T21:01:30.607Z,2.70
2023-04-02T21:06:57.089Z,2.80
2023-04-02T21:12:20.297Z,2.60
2023-04-02T21:17:41.639Z,2.60
2023-04-02T21:23:03.030Z,2.70
2023-04-02T21:28:24.542Z,2.70
2023-04-02T21:33:51.469Z,2.60
2023-04-02T21:39:25.881Z,2.70
2023-04-02T21:44:47.233Z,2.70
2023-04-02T21:50:09.516Z,2.70
2023-04-02T21:55:30.988Z,2.60
2023-04-02T22:00:52.516Z,2.50
2023-04-02T22:06:16.917Z,2.50
2023-04-02T22:11:42.114Z,2.60
2023-04-02T22:17:04.157Z,2.60
2023-04-02T22:22:25.877Z,2.50
2023-04-02T22:27:47.381Z,2.50
2023-04-02T22:33:08.968Z,2.40
2023-04-02T22:38:30.327Z,2.40
2023-04-02T22:43:52.560Z,2.40
2023-04-02T22:49:19.353Z,2.20
2023-04-02T22:54:40.825Z,2.20
2023-04-02T23:00:02.397Z,2.10
2023-04-02T23:05:23.918Z,2.10
2023-04-02T23:10:45.373Z,1.90
2023-04-02T23:16:10.149Z,1.90
2023-04-02T23:21:31.349Z,1.80
2023-04-02T23:26:52.636Z,1.90
2023-04-02T23:32:14.156Z,1.80
2023-04-02T23:37:35.595Z,1.70
2023-04-02T23:42:57.199Z,1.80
2023-04-02T23:48:18.396Z,1.70
2023-04-02T23:53:40.036Z,1.60
2023-04-02T23:59:01.398Z,1.40
